Time;durP1;ratioP1;P1;durP2;ratioP2;P2;SDS_P1;SDS_P2;PMS_P1;PMS_P2;Temp;Humidity;BMP_temperature;BMP_pressure;BME280_temperature;BME280_humidity;BME280_pressure;Samples;Min_cycle;Max_cycle;Signal;HPM_P1;HPM_P2
2023/07/07 00:00:56;;;;;;;0.10;0.10;;;;;;;21.59;100.00;101930.66;10434141;28;20041;-83
2023/07/07 00:05:58;;;;;;;0.10;0.08;;;;;;;20.82;100.00;101929.03;10452631;28;20041;-83
2023/07/07 00:11:00;;;;;;;0.15;0.10;;;;;;;20.96;100.00;101929.91;10434767;28;20044;-83
2023/07/07 00:16:03;;;;;;;1.15;0.40;;;;;;;21.32;100.00;101937.69;10452012;28;20041;-83
2023/07/07 00:21:05;;;;;;;0.55;0.20;;;;;;;21.35;100.00;101942.91;10418912;28;20099;-83
2023/07/07 00:26:09;;;;;;;0.43;0.20;;;;;;;20.88;100.00;101935.16;10451290;28;20119;-83
2023/07/07 00:31:10;;;;;;;0.00;0.00;;;;;;;21.17;100.00;101934.25;10432561;28;20044;-83
2023/07/07 00:36:12;;;;;;;0.43;0.25;;;;;;;21.04;100.00;101936.00;10422287;28;20583;-83
2023/07/07 00:41:14;;;;;;;0.30;0.30;;;;;;;20.77;100.00;101936.88;10420923;28;20072;-83
2023/07/07 00:46:16;;;;;;;0.10;0.10;;;;;;;21.22;100.00;101940.34;10451456;28;20717;-83
2023/07/07 00:51:32;;;;;;;0.10;0.05;;;;;;;21.37;100.00;101947.28;10435163;28;20088;-83
2023/07/07 00:56:41;;;;;;;0.43;0.43;;;;;;;21.23;100.00;101942.09;10443122;28;20045;-83
2023/07/07 01:01:43;;;;;;;0.10;0.10;;;;;;;20.78;100.00;101941.25;10407037;28;20049;-83
2023/07/07 01:06:52;;;;;;;0.10;0.10;;;;;;;20.88;100.00;101948.25;10411174;28;20049;-83
2023/07/07 01:11:54;;;;;;;0.00;0.00;;;;;;;21.07;100.00;101943.84;10378503;28;20141;-83
2023/07/07 01:17:06;;;;;;;0.00;0.00;;;;;;;20.77;100.00;101945.59;10409792;28;20038;-83
2023/07/07 01:22:35;;;;;;;0.08;0.08;;;;;;;20.60;100.00;101937.72;10395867;28;20135;-83
2023/07/07 01:27:57;;;;;;;0.10;0.05;;;;;;;20.58;100.00;101939.50;10401204;28;20063;-83
2023/07/07 01:33:02;;;;;;;0.10;0.10;;;;;;;20.71;100.00;101931.63;10427956;28;20407;-83
2023/07/07 01:38:05;;;;;;;0.20;0.15;;;;;;;20.74;100.00;101923.78;10402062;28;20073;-83
2023/07/07 01:43:16;;;;;;;0.00;0.00;;;;;;;20.78;100.00;101917.69;10433755;28;20491;-83
2023/07/07 01:48:46;;;;;;;0.10;0.10;;;;;;;20.90;100.00;101935.16;10424005;28;20503;-83
2023/07/07 01:53:50;;;;;;;0.10;0.10;;;;;;;20.82;100.00;101931.66;10467525;28;20498;-83
2023/07/07 01:58:53;;;;;;;0.08;0.08;;;;;;;20.53;100.00;101935.97;10440644;28;20318;-83
2023/07/07 02:03:57;;;;;;;0.98;0.15;;;;;;;20.33;100.00;101933.31;10442360;28;20048;-83
2023/07/07 02:08:59;;;;;;;0.22;0.10;;;;;;;20.26;100.00;101937.69;10431122;28;20044;-83
2023/07/07 02:14:01;;;;;;;0.20;0.17;;;;;;;20.16;100.00;101930.69;10424360;28;20427;-83
2023/07/07 02:19:03;;;;;;;0.00;0.00;;;;;;;20.07;100.00;101938.50;10456406;28;20045;-83
2023/07/07 02:24:05;;;;;;;0.10;0.10;;;;;;;20.23;100.00;101937.66;10448511;28;20041;-83
2023/07/07 02:29:07;;;;;;;0.43;0.00;;;;;;;20.21;100.00;101944.66;10456667;28;20084;-83
2023/07/07 02:34:08;;;;;;;0.32;0.28;;;;;;;20.10;100.00;101941.13;10456382;28;20053;-83
2023/07/07 02:39:10;;;;;;;0.00;0.00;;;;;;;19.99;100.00;101948.09;10439519;28;20043;-85
2023/07/07 02:44:16;;;;;;;0.05;0.05;;;;;;;20.10;100.00;101956.81;10440706;28;20045;-83
2023/07/07 02:49:19;;;;;;;0.10;0.10;;;;;;;20.24;100.00;101949.03;10457471;28;20431;-83
2023/07/07 02:54:21;;;;;;;0.00;0.00;;;;;;;20.16;100.00;101943.75;10470764;28;20037;-83
2023/07/07 02:59:23;;;;;;;0.38;0.20;;;;;;;20.17;100.00;101953.34;10441235;28;20467;-83
2023/07/07 03:04:24;;;;;;;0.13;0.08;;;;;;;19.81;100.00;101954.94;10440409;28;20128;-83
2023/07/07 03:09:26;;;;;;;0.47;0.47;;;;;;;19.92;100.00;101953.28;10440460;28;20056;-82
2023/07/07 03:14:30;;;;;;;0.28;0.28;;;;;;;20.09;100.00;101955.06;10439920;28;20087;-83
2023/07/07 03:19:32;;;;;;;0.05;0.05;;;;;;;20.06;100.00;101961.19;10455563;28;20091;-83
2023/07/07 03:24:44;;;;;;;0.10;0.10;;;;;;;19.99;100.00;101958.56;10441546;28;20443;-83
2023/07/07 03:30:08;;;;;;;0.10;0.10;;;;;;;19.37;100.00;101958.22;10439496;28;20041;-82
2023/07/07 03:35:25;;;;;;;0.00;0.00;;;;;;;19.77;100.00;101959.28;10424933;28;20044;-82
2023/07/07 03:40:27;;;;;;;0.00;0.00;;;;;;;20.19;100.00;101969.06;10457043;28;20103;-82
2023/07/07 03:45:33;;;;;;;0.08;0.08;;;;;;;19.42;100.00;101973.06;10439014;28;20048;-82
2023/07/07 03:50:36;;;;;;;0.10;0.10;;;;;;;19.93;100.00;101969.84;10398516;28;20053;-82
2023/07/07 03:55:38;;;;;;;0.00;0.00;;;;;;;19.89;100.00;101971.59;10431268;28;20045;-82
2023/07/07 04:00:40;;;;;;;2.05;0.10;;;;;;;20.07;100.00;101975.13;10453379;28;20071;-83
2023/07/07 04:05:44;;;;;;;0.32;0.13;;;;;;;20.21;100.00;101981.28;10432893;28;20048;-82
2023/07/07 04:11:15;;;;;;;0.08;0.08;;;;;;;20.13;100.00;101988.25;10438734;28;20045;-82
2023/07/07 04:16:22;;;;;;;0.10;0.10;;;;;;;20.28;100.00;101982.16;10415758;28;20049;-82
2023/07/07 04:21:27;;;;;;;0.10;0.03;;;;;;;20.58;100.00;101986.63;10438779;28;20075;-82
2023/07/07 04:26:31;;;;;;;0.00;0.00;;;;;;;19.69;100.00;101994.13;10471657;28;20136;-82
2023/07/07 04:31:33;;;;;;;0.03;0.03;;;;;;;19.93;100.00;101991.63;10438156;28;20466;-82
2023/07/07 04:36:34;;;;;;;0.15;0.15;;;;;;;20.59;100.00;101988.31;10446520;28;20044;-82
2023/07/07 04:41:36;;;;;;;0.00;0.00;;;;;;;20.69;100.00;101984.00;10455245;28;20469;-82
2023/07/07 04:46:39;;;;;;;0.00;0.00;;;;;;;21.08;100.00;101978.78;10438055;28;20044;-82
2023/07/07 04:51:41;;;;;;;0.00;0.00;;;;;;;21.66;100.00;101979.56;10437966;28;20049;-82
2023/07/07 04:56:46;;;;;;;0.20;0.10;;;;;;;22.06;100.00;101983.78;10454345;28;20149;-82
2023/07/07 05:01:47;;;;;;;0.22;0.08;;;;;;;22.09;100.00;101994.28;10454056;28;20494;-82
2023/07/07 05:06:49;;;;;;;0.20;0.15;;;;;;;22.24;100.00;101990.69;10475292;28;20124;-82
2023/07/07 05:11:51;;;;;;;0.20;0.20;;;;;;;21.61;100.00;101992.69;10463714;28;20052;-82
2023/07/07 05:16:53;;;;;;;0.50;0.22;;;;;;;22.44;100.00;102002.00;10450520;28;20128;-82
2023/07/07 05:21:55;;;;;;;1.17;1.00;;;;;;;22.32;100.00;102002.00;10442026;28;20575;-82
2023/07/07 05:26:56;;;;;;;2.15;0.47;;;;;;;22.63;100.00;102000.13;10460573;28;20068;-82
2023/07/07 05:31:58;;;;;;;0.75;0.47;;;;;;;22.50;100.00;102001.94;10460164;28;20148;-82
2023/07/07 05:37:00;;;;;;;0.85;0.35;;;;;;;22.74;100.00;102000.03;10443095;28;20400;-81
2023/07/07 05:42:02;;;;;;;0.22;0.22;;;;;;;23.26;100.00;101995.25;10444110;28;20080;-82
2023/07/07 05:47:04;;;;;;;0.10;0.10;;;;;;;23.87;100.00;101995.41;10443535;28;20060;-82
2023/07/07 05:52:07;;;;;;;0.43;0.40;;;;;;;23.95;100.00;102004.13;10476546;28;20041;-82
2023/07/07 05:57:08;;;;;;;0.80;0.55;;;;;;;23.96;100.00;102011.13;10476780;28;20037;-82
2023/07/07 06:02:11;;;;;;;0.93;0.50;;;;;;;24.69;100.00;102000.47;10469541;28;20063;-82
2023/07/07 06:07:12;;;;;;;1.75;0.25;;;;;;;23.99;100.00;102011.13;10451542;28;20143;-82
2023/07/07 06:12:14;;;;;;;1.08;0.55;;;;;;;24.05;100.00;102000.50;10459250;28;20099;-82
2023/07/07 06:17:16;;;;;;;0.43;0.20;;;;;;;24.83;100.00;102002.03;10459132;28;20120;-82
2023/07/07 06:22:17;;;;;;;0.75;0.52;;;;;;;24.67;100.00;102002.28;10456532;28;20414;-82
2023/07/07 06:27:19;;;;;;;0.50;0.50;;;;;;;24.80;100.00;102004.72;10426150;28;20041;-82
2023/07/07 06:32:21;;;;;;;2.75;1.30;;;;;;;25.14;100.00;102004.13;10459591;28;20044;-82
2023/07/07 06:37:23;;;;;;;0.70;0.43;;;;;;;24.85;100.00;102005.50;10440420;28;20546;-82
2023/07/07 06:42:25;;;;;;;0.55;0.35;;;;;;;25.39;100.00;102003.72;10474286;28;20041;-82
2023/07/07 06:47:35;;;;;;;0.15;0.10;;;;;;;25.68;100.00;102013.72;10441049;28;20557;-82
2023/07/07 06:52:36;;;;;;;0.90;0.52;;;;;;;25.61;100.00;102015.59;10458495;28;20466;-82
2023/07/07 06:57:39;;;;;;;0.20;0.20;;;;;;;26.65;100.00;102023.09;10456542;28;20036;-81
2023/07/07 07:02:42;;;;;;;0.10;0.10;;;;;;;26.94;100.00;102017.13;10457228;28;20518;-82
2023/07/07 07:07:43;;;;;;;0.80;0.50;;;;;;;27.66;100.00;102016.13;10473345;28;20044;-81
2023/07/07 07:12:45;;;;;;;1.17;0.40;;;;;;;27.39;100.00;102014.19;10458240;28;20064;-82
2023/07/07 07:17:47;;;;;;;0.20;0.20;;;;;;;29.29;100.00;102010.09;10456518;28;20559;-82
2023/07/07 07:22:49;;;;;;;0.00;0.00;;;;;;;28.14;100.00;102022.69;10415938;28;20053;-82
2023/07/07 07:27:51;;;;;;;0.10;0.10;;;;;;;28.68;100.00;102028.94;10432621;28;20502;-82
2023/07/07 07:32:52;;;;;;;1.38;0.60;;;;;;;28.63;100.00;102025.59;10456771;28;20124;-83
2023/07/07 07:37:54;;;;;;;0.20;0.10;;;;;;;30.10;100.00;102024.91;10456563;28;20505;-82
2023/07/07 07:42:56;;;;;;;0.30;0.30;;;;;;;30.23;100.00;102034.13;10457050;28;20072;-82
2023/07/07 07:47:58;;;;;;;0.50;0.28;;;;;;;29.79;100.00;102034.00;10456878;28;20041;-82
2023/07/07 07:53:00;;;;;;;0.17;0.05;;;;;;;31.25;100.00;102023.78;10457110;28;20555;-82
2023/07/07 07:58:02;;;;;;;0.00;0.00;;;;;;;31.09;99.21;102027.13;10457207;28;20041;-82
2023/07/07 08:03:04;;;;;;;0.00;0.00;;;;;;;30.17;94.03;102045.84;10456994;28;20102;-82
2023/07/07 08:08:07;;;;;;;0.10;0.10;;;;;;;31.63;96.02;102046.03;10438312;28;20421;-83
2023/07/07 08:13:09;;;;;;;0.15;0.05;;;;;;;31.31;95.31;102044.81;10442823;28;20048;-83
2023/07/07 08:18:11;;;;;;;0.52;0.20;;;;;;;32.35;99.47;102042.81;10456106;28;20055;-83
2023/07/07 08:23:12;;;;;;;0.10;0.10;;;;;;;32.08;92.54;102045.78;10422014;28;20045;-80
2023/07/07 08:28:14;;;;;;;0.10;0.10;;;;;;;31.08;84.57;102059.09;10455958;28;20072;-84
2023/07/07 08:33:17;;;;;;;0.57;0.22;;;;;;;31.73;85.88;102056.31;10451863;28;20049;-83
2023/07/07 08:38:19;;;;;;;0.40;0.13;;;;;;;31.46;81.01;102056.59;10438581;28;20056;-83
2023/07/07 08:43:23;;;;;;;0.00;0.00;;;;;;;31.43;92.04;102064.72;10462884;28;20402;-83
2023/07/07 08:48:41;;;;;;;0.28;0.20;;;;;;;32.39;85.79;102061.22;10479738;28;20124;-81
2023/07/07 08:54:02;;;;;;;0.00;0.00;;;;;;;32.08;83.05;102056.47;10462773;28;20041;-88
2023/07/07 08:59:44;;;;;;;0.10;0.10;;;;;;;32.76;81.09;102055.88;10442266;28;20041;-85
2023/07/07 09:04:52;;;;;;;0.52;0.22;;;;;;;32.94;80.68;102056.78;10410546;28;20036;-86
2023/07/07 09:10:21;;;;;;;0.30;0.10;;;;;;;34.16;84.87;102047.66;10436187;28;20432;-86
2023/07/07 09:15:28;;;;;;;0.30;0.30;;;;;;;34.41;77.67;102051.66;10438540;28;20152;-86
2023/07/07 09:20:33;;;;;;;0.00;0.00;;;;;;;33.51;84.84;102043.19;10439618;28;20045;-85
2023/07/07 09:25:40;;;;;;;0.55;0.20;;;;;;;33.67;76.71;102042.34;10441961;28;20064;-86
2023/07/07 09:30:56;;;;;;;0.05;0.05;;;;;;;33.50;77.45;102044.13;10450254;28;20491;-86
2023/07/07 09:36:21;;;;;;;0.00;0.00;;;;;;;33.51;78.11;102035.16;10457372;28;20075;-84
2023/07/07 09:41:47;;;;;;;0.00;0.00;;;;;;;33.58;72.49;102040.16;10424782;28;20853;-84
2023/07/07 09:46:54;;;;;;;0.00;0.00;;;;;;;34.72;84.29;102039.16;10450481;28;20052;-84
2023/07/07 09:52:06;;;;;;;0.00;0.00;;;;;;;34.41;74.78;102040.97;10439083;28;20056;-83
2023/07/07 09:57:27;;;;;;;0.35;0.35;;;;;;;34.51;71.57;102030.56;10469524;28;20041;-82
2023/07/07 10:02:30;;;;;;;0.10;0.10;;;;;;;32.79;73.44;102034.44;10458220;28;20127;-81
2023/07/07 10:07:40;;;;;;;0.85;0.17;;;;;;;33.83;71.54;102024.53;10440623;28;20045;-82
2023/07/07 10:12:42;;;;;;;0.15;0.13;;;;;;;34.58;79.92;102031.09;10440337;28;20514;-83
2023/07/07 10:17:53;;;;;;;0.35;0.13;;;;;;;34.70;77.83;102030.38;10473717;28;20072;-83
2023/07/07 10:22:58;;;;;;;0.05;0.05;;;;;;;33.89;68.86;102027.84;10451643;28;20049;-82
2023/07/07 10:28:01;;;;;;;0.10;0.10;;;;;;;34.34;67.56;102018.16;10458439;28;20076;-83
2023/07/07 10:33:03;;;;;;;0.00;0.00;;;;;;;34.21;69.92;102026.00;10443060;28;20037;-85
2023/07/07 10:38:06;;;;;;;1.42;0.45;;;;;;;34.23;65.17;102031.25;10448132;28;20056;-83
2023/07/07 10:43:12;;;;;;;0.10;0.10;;;;;;;35.71;68.35;102017.09;10435588;28;20052;-83
2023/07/07 10:48:15;;;;;;;0.30;0.10;;;;;;;35.65;67.19;102012.13;10456721;28;20037;-84
2023/07/07 10:53:35;;;;;;;0.00;0.00;;;;;;;35.82;74.35;102019.09;10439485;28;20547;-83
2023/07/07 10:59:01;;;;;;;0.20;0.10;;;;;;;34.67;65.64;102017.16;10463399;28;20110;-83
2023/07/07 11:04:36;;;;;;;0.15;0.10;;;;;;;35.29;71.26;102010.78;10437852;28;20136;-83
2023/07/07 11:10:16;;;;;;;0.50;0.15;;;;;;;34.17;60.64;102011.09;10425323;28;20488;-84
2023/07/07 11:15:41;;;;;;;0.20;0.10;;;;;;;34.47;71.64;102008.50;10437597;28;20056;-83
2023/07/07 11:21:01;;;;;;;0.13;0.08;;;;;;;34.75;69.15;102001.50;10422129;28;20403;-83
2023/07/07 11:26:12;;;;;;;0.00;0.00;;;;;;;35.12;73.51;101998.44;10432842;28;20052;-82
2023/07/07 11:31:54;;;;;;;0.03;0.00;;;;;;;35.10;66.70;101990.53;10451783;28;20082;-83
2023/07/07 11:37:06;;;;;;;0.20;0.20;;;;;;;35.44;67.46;101986.72;10470620;28;20434;-84
2023/07/07 11:42:34;;;;;;;0.10;0.10;;;;;;;34.33;62.62;101987.84;10437747;28;20056;-84
2023/07/07 11:47:45;;;;;;;0.77;0.37;;;;;;;34.54;63.88;101986.72;10437149;28;20512;-84
2023/07/07 11:53:13;;;;;;;0.20;0.20;;;;;;;33.03;61.25;101981.59;10469402;28;20091;-83
2023/07/07 11:58:33;;;;;;;0.28;0.20;;;;;;;33.47;61.48;101982.81;10449660;28;20041;-82
2023/07/07 12:03:44;;;;;;;1.35;0.38;;;;;;;34.24;62.33;101980.38;10416984;28;20087;-85
2023/07/07 12:09:05;;;;;;;0.05;0.00;;;;;;;34.58;61.04;101967.72;10446271;28;20037;-84
2023/07/07 12:14:20;;;;;;;0.25;0.25;;;;;;;32.48;61.72;101971.91;10416332;28;20044;-86
2023/07/07 12:19:33;;;;;;;0.22;0.22;;;;;;;34.11;64.76;101964.19;10434255;28;20060;-85
2023/07/07 12:24:53;;;;;;;0.08;0.08;;;;;;;35.03;64.88;101951.69;10450438;28;20041;-87
2023/07/07 12:29:57;;;;;;;0.00;0.00;;;;;;;34.54;63.71;101951.94;10445669;28;20056;-83
2023/07/07 12:35:06;;;;;;;0.00;0.00;;;;;;;33.95;58.47;101955.31;10418372;28;20053;-84
2023/07/07 12:40:08;;;;;;;0.00;0.00;;;;;;;33.54;56.32;101948.63;10445947;28;20037;-86
2023/07/07 12:45:25;;;;;;;0.00;0.00;;;;;;;33.65;62.80;101940.03;10431200;28;20049;-84
2023/07/07 12:50:31;;;;;;;0.00;0.00;;;;;;;33.31;56.34;101934.75;10430033;28;20047;-85
2023/07/07 12:55:37;;;;;;;0.10;0.10;;;;;;;33.46;56.42;101930.38;10450878;28;20041;-83
2023/07/07 13:00:41;;;;;;;0.00;0.00;;;;;;;33.95;59.25;101936.59;10436552;28;20063;-84
2023/07/07 13:05:47;;;;;;;0.10;0.10;;;;;;;33.06;59.72;101933.34;10465877;28;20588;-86
2023/07/07 13:10:50;;;;;;;0.20;0.20;;;;;;;34.28;57.46;101933.78;10433521;28;20053;-84
2023/07/07 13:15:53;;;;;;;0.00;0.00;;;;;;;34.61;59.11;101929.22;10450040;28;20044;-84
2023/07/07 13:20:56;;;;;;;0.35;0.10;;;;;;;33.16;60.07;101935.53;10453455;28;20063;-86
2023/07/07 13:25:58;;;;;;;0.00;0.00;;;;;;;33.45;58.70;101927.78;10435991;28;20068;-86
2023/07/07 13:31:00;;;;;;;0.15;0.10;;;;;;;33.31;61.91;101916.03;10441702;28;20049;-87
2023/07/07 13:36:02;;;;;;;0.10;0.10;;;;;;;33.55;60.10;101912.13;10441579;28;20041;-87
2023/07/07 13:41:05;;;;;;;0.10;0.10;;;;;;;34.11;60.60;101905.38;10440489;28;20139;-88
2023/07/07 13:46:12;;;;;;;0.20;0.10;;;;;;;33.98;61.47;101912.38;10440756;28;20087;-85
2023/07/07 13:51:19;;;;;;;0.20;0.20;;;;;;;33.95;67.88;101916.09;10439414;28;20045;-86
2023/07/07 13:56:21;;;;;;;0.20;0.20;;;;;;;33.18;59.32;101910.47;10438196;28;20107;-86
2023/07/07 14:01:32;;;;;;;0.28;0.20;;;;;;;34.24;57.49;101909.97;10443751;28;20061;-86
2023/07/07 14:06:35;;;;;;;0.20;0.10;;;;;;;34.19;66.41;101906.72;10419143;28;20045;-86
2023/07/07 14:11:36;;;;;;;5.72;0.50;;;;;;;33.42;58.53;101907.44;10457279;28;20079;-86
2023/07/07 14:16:44;;;;;;;0.20;0.20;;;;;;;34.86;64.59;101903.63;10458691;28;20655;-86
2023/07/07 14:21:47;;;;;;;0.20;0.20;;;;;;;34.03;62.65;101907.63;10439612;28;20079;-84
2023/07/07 14:26:50;;;;;;;0.03;0.03;;;;;;;34.68;62.29;101893.09;10440306;28;20055;-84
2023/07/07 14:31:52;;;;;;;0.00;0.00;;;;;;;34.40;63.70;101884.06;10439037;28;20047;-85
2023/07/07 14:36:58;;;;;;;0.00;0.00;;;;;;;34.03;60.75;101885.38;10441722;28;20044;-84
2023/07/07 14:42:18;;;;;;;0.00;0.00;;;;;;;33.92;59.46;101888.69;10418811;28;20090;-84
2023/07/07 14:47:33;;;;;;;0.65;0.55;;;;;;;33.66;61.41;101881.16;10440216;28;20045;-84
2023/07/07 14:52:42;;;;;;;0.10;0.10;;;;;;;33.84;63.32;101876.63;10454107;28;20377;-84
2023/07/07 14:57:48;;;;;;;0.10;0.10;;;;;;;33.21;59.33;101875.59;10432432;28;20112;-84
2023/07/07 15:02:50;;;;;;;0.30;0.10;;;;;;;34.20;59.46;101871.84;10430035;28;20053;-85
2023/07/07 15:07:52;;;;;;;0.10;0.10;;;;;;;33.84;60.68;101860.59;10435314;28;20052;-84
2023/07/07 15:12:54;;;;;;;0.63;0.17;;;;;;;33.76;63.16;101862.81;10455897;28;20041;-85
2023/07/07 15:17:55;;;;;;;0.55;0.20;;;;;;;32.90;59.65;101847.06;10417293;28;20057;-85
2023/07/07 15:22:57;;;;;;;0.10;0.10;;;;;;;33.94;61.19;101849.34;10449343;28;20053;-86
2023/07/07 15:27:59;;;;;;;0.30;0.13;;;;;;;34.04;60.84;101845.19;10429134;28;20086;-85
2023/07/07 15:33:00;;;;;;;0.00;0.00;;;;;;;33.56;56.68;101849.69;10453080;28;20485;-85
2023/07/07 15:38:41;;;;;;;0.20;0.20;;;;;;;33.49;57.09;101850.06;10451426;28;20442;-85
2023/07/07 15:43:42;;;;;;;2.17;0.73;;;;;;;34.44;63.76;101842.81;10423974;28;20414;-84
2023/07/07 15:48:52;;;;;;;0.35;0.10;;;;;;;33.78;56.69;101839.50;10438619;28;20044;-85
2023/07/07 15:53:56;;;;;;;1.00;0.63;;;;;;;34.51;62.24;101842.44;10423648;28;20569;-84
2023/07/07 15:58:58;;;;;;;0.10;0.10;;;;;;;34.66;60.69;101836.16;10427557;28;20056;-85
2023/07/07 16:04:00;;;;;;;0.00;0.00;;;;;;;34.60;63.55;101836.50;10422741;28;20053;-85
2023/07/07 16:09:09;;;;;;;0.00;0.00;;;;;;;33.70;56.58;101831.06;10433177;28;20060;-85
2023/07/07 16:14:11;;;;;;;0.00;0.00;;;;;;;34.08;60.53;101830.66;10432522;28;20124;-85
2023/07/07 16:19:15;;;;;;;0.20;0.00;;;;;;;33.62;61.51;101833.34;10449482;28;20076;-85
2023/07/07 16:24:17;;;;;;;0.00;0.00;;;;;;;34.47;63.25;101821.22;10435833;28;20055;-82
2023/07/07 16:29:19;;;;;;;0.00;0.00;;;;;;;34.14;61.75;101829.44;10438074;28;20052;-81
2023/07/07 16:34:21;;;;;;;0.08;0.03;;;;;;;33.85;63.18;101824.03;10438560;28;20507;-81
2023/07/07 16:39:23;;;;;;;0.15;0.15;;;;;;;33.81;61.43;101817.97;10439471;28;20045;-84
2023/07/07 16:44:25;;;;;;;0.28;0.20;;;;;;;34.44;63.80;101810.69;10450778;28;20053;-84
2023/07/07 16:49:27;;;;;;;0.10;0.00;;;;;;;34.41;70.11;101800.22;10440904;28;20369;-84
2023/07/07 16:54:29;;;;;;;1.75;0.30;;;;;;;34.21;63.07;101796.03;10458101;28;20505;-84
2023/07/07 16:59:31;;;;;;;0.00;0.00;;;;;;;34.11;63.31;101798.41;10437705;28;20135;-84
2023/07/07 17:04:33;;;;;;;0.00;0.00;;;;;;;33.93;67.58;101804.84;10430251;28;20090;-84
2023/07/07 17:09:34;;;;;;;0.00;0.00;;;;;;;33.55;63.48;101799.91;10458720;28;20045;-83
2023/07/07 17:14:36;;;;;;;0.10;0.10;;;;;;;33.60;64.54;101790.66;10454821;28;20052;-83
2023/07/07 17:19:38;;;;;;;0.25;0.25;;;;;;;33.80;66.90;101794.84;10427454;28;20048;-83
2023/07/07 17:24:40;;;;;;;0.08;0.05;;;;;;;33.96;67.10;101789.47;10443786;28;20053;-84
2023/07/07 17:29:42;;;;;;;0.00;0.00;;;;;;;34.51;70.91;101795.16;10446232;28;20418;-83
2023/07/07 17:34:43;;;;;;;0.00;0.00;;;;;;;33.61;67.86;101795.06;10451612;28;20097;-85
2023/07/07 17:39:45;;;;;;;0.00;0.00;;;;;;;33.17;65.69;101785.97;10446438;28;20045;-83
2023/07/07 17:44:47;;;;;;;0.47;0.47;;;;;;;34.12;71.13;101788.56;10445885;28;20067;-81
2023/07/07 17:49:49;;;;;;;0.32;0.17;;;;;;;33.44;70.38;101781.81;10473068;28;20457;-83
2023/07/07 17:54:50;;;;;;;0.03;0.03;;;;;;;33.73;73.30;101780.13;10449580;28;20056;-83
2023/07/07 17:59:52;;;;;;;0.22;0.08;;;;;;;33.01;71.96;101785.94;10442453;28;20051;-83
2023/07/07 18:04:54;;;;;;;0.00;0.00;;;;;;;32.70;72.75;101786.72;10434633;28;20041;-83
2023/07/07 18:09:56;;;;;;;0.22;0.22;;;;;;;33.22;73.03;101777.66;10456084;28;20139;-83
2023/07/07 18:14:58;;;;;;;0.20;0.20;;;;;;;33.05;72.20;101781.28;10454074;28;20060;-83
2023/07/07 18:20:00;;;;;;;0.00;0.00;;;;;;;32.55;72.49;101773.28;10421185;28;20072;-83
2023/07/07 18:25:21;;;;;;;0.10;0.10;;;;;;;32.86;74.80;101782.31;10445410;28;20041;-83
2023/07/07 18:30:39;;;;;;;0.00;0.00;;;;;;;32.11;78.40;101776.44;10437764;28;20047;-82
2023/07/07 18:35:41;;;;;;;4.50;0.37;;;;;;;32.15;75.40;101779.81;10455121;28;20041;-82
2023/07/07 18:40:43;;;;;;;0.00;0.00;;;;;;;32.22;76.73;101779.44;10455162;28;20090;-83
2023/07/07 18:45:44;;;;;;;0.00;0.00;;;;;;;31.69;76.73;101777.66;10438179;28;20049;-82
2023/07/07 18:50:47;;;;;;;0.20;0.20;;;;;;;31.67;77.85;101779.56;10454942;28;20068;-82
2023/07/07 18:55:48;;;;;;;1.08;0.30;;;;;;;32.18;80.29;101774.31;10453879;28;20048;-83
2023/07/07 19:00:51;;;;;;;0.30;0.30;;;;;;;32.01;77.19;101777.84;10420918;28;20479;-82
2023/07/07 19:05:54;;;;;;;0.00;0.00;;;;;;;31.60;83.03;101779.84;10436760;28;20041;-82
2023/07/07 19:10:56;;;;;;;0.00;0.00;;;;;;;31.06;86.40;101778.88;10420679;28;20048;-82
2023/07/07 19:15:57;;;;;;;0.00;0.00;;;;;;;30.50;87.12;101776.03;10453005;28;20090;-82
2023/07/07 19:21:00;;;;;;;0.00;0.00;;;;;;;30.63;85.99;101777.25;10436733;28;20068;-82
2023/07/07 19:26:02;;;;;;;0.00;0.00;;;;;;;30.29;85.59;101778.72;10435736;28;20056;-82
2023/07/07 19:31:09;;;;;;;0.20;0.10;;;;;;;30.62;84.71;101774.66;10435851;28;20381;-82
2023/07/07 19:36:15;;;;;;;0.00;0.00;;;;;;;30.84;85.08;101774.56;10446714;28;20130;-82
2023/07/07 19:41:20;;;;;;;0.10;0.10;;;;;;;30.29;88.76;101784.03;10451030;28;20049;-82
2023/07/07 19:46:25;;;;;;;0.20;0.10;;;;;;;29.95;91.34;101782.84;10434795;28;20694;-82
2023/07/07 19:51:30;;;;;;;0.00;0.00;;;;;;;29.35;89.96;101786.09;10456047;28;20072;-82
2023/07/07 19:56:31;;;;;;;0.00;0.00;;;;;;;29.54;90.55;101794.19;10452549;28;20037;-82
2023/07/07 20:01:33;;;;;;;0.00;0.00;;;;;;;29.49;88.78;101787.34;10435029;28;20041;-82
2023/07/07 20:06:38;;;;;;;0.00;0.00;;;;;;;29.05;88.04;101793.41;10452725;28;20119;-82
2023/07/07 20:11:42;;;;;;;0.00;0.00;;;;;;;28.72;90.94;101791.97;10461245;28;20079;-82
2023/07/07 20:16:50;;;;;;;0.10;0.10;;;;;;;29.00;89.15;101787.44;10452847;28;20071;-82
2023/07/07 20:21:52;;;;;;;0.10;0.10;;;;;;;29.08;86.54;101802.13;10434163;28;20052;-82
2023/07/07 20:26:53;;;;;;;0.00;0.00;;;;;;;29.10;89.17;101794.97;10451680;28;20478;-82
2023/07/07 20:32:00;;;;;;;0.00;0.00;;;;;;;28.80;87.20;101799.66;10451381;28;20827;-82
2023/07/07 20:37:02;;;;;;;0.00;0.00;;;;;;;29.08;88.17;101799.47;10439570;28;20124;-81
2023/07/07 20:42:14;;;;;;;0.03;0.00;;;;;;;28.69;89.46;101802.69;10475364;28;20124;-82
2023/07/07 20:47:15;;;;;;;0.10;0.10;;;;;;;28.65;88.39;101801.03;10458629;28;20067;-82
2023/07/07 20:52:17;;;;;;;0.00;0.00;;;;;;;28.43;88.13;101807.09;10450410;28;20048;-82
2023/07/07 20:57:19;;;;;;;0.00;0.00;;;;;;;28.31;89.58;101807.53;10458171;28;20045;-82
2023/07/07 21:02:24;;;;;;;0.00;0.00;;;;;;;27.97;90.13;101803.34;10441390;28;20076;-82
2023/07/07 21:07:26;;;;;;;0.00;0.00;;;;;;;27.83;90.50;101807.31;10459370;28;20069;-82
2023/07/07 21:12:28;;;;;;;0.00;0.00;;;;;;;28.09;89.98;101808.28;10440856;28;20398;-82
2023/07/07 21:17:29;;;;;;;0.00;0.00;;;;;;;28.04;89.61;101799.56;10458525;28;20048;-82
2023/07/07 21:22:31;;;;;;;0.30;0.25;;;;;;;27.92;89.35;101803.53;10473785;28;20079;-81
2023/07/07 21:27:33;;;;;;;0.10;0.10;;;;;;;28.03;88.57;101809.31;10459141;28;20435;-82
2023/07/07 21:32:34;;;;;;;0.17;0.00;;;;;;;27.63;89.25;101809.75;10443982;28;20044;-82
2023/07/07 21:37:36;;;;;;;0.00;0.00;;;;;;;27.78;89.28;101801.31;10440091;28;20043;-82
2023/07/07 21:42:37;;;;;;;0.00;0.00;;;;;;;27.75;89.48;101809.34;10456826;28;20491;-82
2023/07/07 21:47:42;;;;;;;0.00;0.00;;;;;;;27.34;89.60;101803.53;10438822;28;20144;-81
2023/07/07 21:52:44;;;;;;;0.00;0.00;;;;;;;27.67;88.81;101806.06;10463549;28;20037;-82
2023/07/07 21:57:48;;;;;;;0.00;0.00;;;;;;;26.88;91.22;101816.34;10446869;28;20484;-82
2023/07/07 22:02:53;;;;;;;0.00;0.00;;;;;;;27.06;91.69;101809.66;10437521;28;20059;-82
2023/07/07 22:07:59;;;;;;;0.10;0.10;;;;;;;26.85;94.08;101814.63;10456113;28;20052;-82
2023/07/07 22:13:00;;;;;;;0.20;0.00;;;;;;;26.93;91.57;101811.78;10438289;28;20055;-82
2023/07/07 22:18:03;;;;;;;0.05;0.05;;;;;;;26.47;94.14;101803.31;10449860;28;20052;-82
2023/07/07 22:23:09;;;;;;;0.03;0.03;;;;;;;26.81;96.03;101794.50;10438462;28;20049;-82
2023/07/07 22:28:14;;;;;;;0.20;0.10;;;;;;;26.86;93.25;101800.50;10456872;28;20472;-82
2023/07/07 22:33:17;;;;;;;0.00;0.00;;;;;;;26.74;93.37;101799.03;10441062;28;20091;-81
2023/07/07 22:38:20;;;;;;;0.00;0.00;;;;;;;26.96;92.46;101797.59;10461097;28;20064;-81
2023/07/07 22:43:22;;;;;;;0.15;0.15;;;;;;;26.88;91.63;101798.69;10440110;28;20555;-81
2023/07/07 22:48:24;;;;;;;0.10;0.08;;;;;;;26.51;93.72;101793.53;10452778;28;20041;-81
2023/07/07 22:53:25;;;;;;;0.20;0.10;;;;;;;26.05;96.86;101791.16;10456030;28;20083;-81
2023/07/07 22:58:27;;;;;;;0.00;0.00;;;;;;;25.64;99.56;101788.63;10438548;28;20048;-81
2023/07/07 23:03:29;;;;;;;0.13;0.10;;;;;;;25.71;98.98;101777.91;10471329;28;20066;-81
2023/07/07 23:08:31;;;;;;;0.10;0.10;;;;;;;25.70;97.78;101782.31;10470900;28;20044;-81
2023/07/07 23:13:33;;;;;;;0.00;0.00;;;;;;;26.24;96.54;101775.75;10437298;28;20045;-81
2023/07/07 23:18:37;;;;;;;0.00;0.00;;;;;;;25.33;100.00;101788.38;10437489;28;20037;-81